createdAt,value
2022-08-22T00:04:20.231Z,23.45
2022-08-22T00:09:58.705Z,25.28
2022-08-22T00:15:42.160Z,26.23
2022-08-22T00:21:18.220Z,26.30
2022-08-22T00:27:02.148Z,24.64
2022-08-22T00:32:37.286Z,23.54
2022-08-22T00:38:11.162Z,23.92
2022-08-22T00:43:39.600Z,25.69
2022-08-22T00:49:17.020Z,26.43
2022-08-22T00:54:53.654Z,26.16
2022-08-22T01:00:05.371Z,24.52
2022-08-22T01:05:20.497Z,23.54
2022-08-22T01:10:58.096Z,23.74
2022-08-22T01:16:41.958Z,25.53
2022-08-22T01:22:22.281Z,26.25
2022-08-22T01:27:37.038Z,25.89
2022-08-22T01:33:18.403Z,24.34
2022-08-22T01:39:02.072Z,23.40
2022-08-22T01:44:45.989Z,23.90
2022-08-22T01:50:00.628Z,25.68
2022-08-22T01:55:21.186Z,26.34
2022-08-22T02:00:35.528Z,26.00
2022-08-22T02:05:54.030Z,24.41
2022-08-22T02:11:12.143Z,23.45
2022-08-22T02:17:14.864Z,23.74
2022-08-22T02:22:44.505Z,25.67
2022-08-22T02:28:15.066Z,26.16
2022-08-22T02:33:45.845Z,24.70
2022-08-22T02:39:31.647Z,23.64
2022-08-22T02:44:53.064Z,22.91
2022-08-22T02:50:23.952Z,23.38
2022-08-22T02:55:34.031Z,25.31
2022-08-22T03:01:23.905Z,26.14
2022-08-22T03:06:50.171Z,25.04
2022-08-22T03:12:25.052Z,23.81
2022-08-22T03:17:55.581Z,23.02
2022-08-22T03:23:08.661Z,23.53
2022-08-22T03:28:59.427Z,25.29
2022-08-22T03:34:26.882Z,26.07
2022-08-22T03:39:56.930Z,25.24
2022-08-22T03:45:52.516Z,23.67
2022-08-22T03:51:21.960Z,22.70
2022-08-22T03:57:10.761Z,23.12
2022-08-22T04:03:07.899Z,25.01
2022-08-22T04:08:26.450Z,25.85
2022-08-22T04:14:01.404Z,26.29
2022-08-22T04:19:22.851Z,24.94
2022-08-22T04:25:12.252Z,23.68
2022-08-22T04:31:06.109Z,24.07
2022-08-22T04:36:20.717Z,25.85
2022-08-22T04:41:52.409Z,26.48
2022-08-22T04:47:05.257Z,25.34
2022-08-22T04:53:09.193Z,23.98
2022-08-22T04:58:48.663Z,24.24
2022-08-22T05:04:06.963Z,25.83
2022-08-22T05:09:19.367Z,26.48
2022-08-22T05:14:43.654Z,26.22
2022-08-22T05:19:54.027Z,24.53
2022-08-22T05:25:04.891Z,23.55
2022-08-22T05:30:17.053Z,24.72
2022-08-22T05:35:36.116Z,26.08
2022-08-22T05:40:43.232Z,26.75
2022-08-22T05:45:48.060Z,27.01
2022-08-22T05:51:02.034Z,25.60
2022-08-22T05:56:41.102Z,24.23
2022-08-22T06:01:55.374Z,24.45
2022-08-22T06:07:18.392Z,26.09
2022-08-22T06:12:29.549Z,26.83
2022-08-22T06:17:43.166Z,27.25
2022-08-22T06:23:11.084Z,26.33
2022-08-22T06:28:29.731Z,24.82
2022-08-22T06:33:40.251Z,23.90
2022-08-22T06:38:53.741Z,24.37
2022-08-22T06:43:59.011Z,26.25
2022-08-22T06:49:04.764Z,27.14
2022-08-22T06:54:18.316Z,27.07
2022-08-22T06:59:32.296Z,25.55
2022-08-22T07:04:36.605Z,24.63
2022-08-22T07:09:42.106Z,26.00
2022-08-22T07:14:55.912Z,27.14
2022-08-22T07:20:22.735Z,27.03
2022-08-22T07:25:27.730Z,25.42
2022-08-22T07:31:02.058Z,24.43
2022-08-22T07:36:55.530Z,24.95
2022-08-22T07:42:10.077Z,26.79
2022-08-22T07:47:26.532Z,27.19
2022-08-22T07:52:40.685Z,25.80
2022-08-22T07:58:01.864Z,25.04
2022-08-22T08:03:11.984Z,26.63
2022-08-22T08:08:34.717Z,27.58
2022-08-22T08:13:43.957Z,26.48
2022-08-22T08:18:51.267Z,25.31
2022-08-22T08:23:55.137Z,24.74
2022-08-22T08:28:59.689Z,25.37
2022-08-22T08:34:32.668Z,27.33
2022-08-22T08:39:42.253Z,27.60
2022-08-22T08:45:05.141Z,26.31
2022-08-22T08:50:44.046Z,25.94
2022-08-22T08:56:03.285Z,27.72
2022-08-22T09:01:34.100Z,26.95
2022-08-22T09:06:56.718Z,25.85
2022-08-22T09:12:36.596Z,25.28
2022-08-22T09:18:24.362Z,26.28
2022-08-22T09:24:11.230Z,27.26
2022-08-22T09:29:54.456Z,26.05
2022-08-22T09:35:13.083Z,25.43
2022-08-22T09:40:37.294Z,26.08
2022-08-22T09:46:19.776Z,27.22
2022-08-22T09:52:02.643Z,26.16
2022-08-22T09:57:40.033Z,25.60
2022-08-22T10:03:06.146Z,25.27
2022-08-22T10:08:19.723Z,25.14
2022-08-22T10:14:03.682Z,26.10
2022-08-22T10:19:30.702Z,27.80
2022-08-22T10:24:58.628Z,26.90
2022-08-22T10:30:32.828Z,26.24
2022-08-22T10:36:12.022Z,25.82
2022-08-22T10:42:00.272Z,25.55
2022-08-22T10:47:15.264Z,27.14
2022-08-22T10:52:43.225Z,28.12
2022-08-22T10:58:07.279Z,26.99
2022-08-22T11:03:48.722Z,26.33
2022-08-22T11:09:09.313Z,25.90
2022-08-22T11:15:03.034Z,25.65
2022-08-22T11:20:25.469Z,25.38
2022-08-22T11:26:14.464Z,26.33
2022-08-22T11:31:47.199Z,27.76
2022-08-22T11:37:11.087Z,27.00
2022-08-22T11:42:33.498Z,26.64
2022-08-22T11:47:56.634Z,26.46
2022-08-22T11:53:15.361Z,26.32
2022-08-22T11:58:28.823Z,26.19
2022-08-22T12:04:28.737Z,26.08
2022-08-22T12:09:55.463Z,26.02
2022-08-22T12:15:21.276Z,26.02
2022-08-22T12:20:45.883Z,25.90
2022-08-22T12:26:11.048Z,25.93
2022-08-22T12:31:31.586Z,26.01
2022-08-22T12:36:55.249Z,25.99
2022-08-22T12:42:20.170Z,25.99
2022-08-22T12:48:00.829Z,25.92
2022-08-22T12:53:20.338Z,25.82
2022-08-22T12:59:22.781Z,25.81
2022-08-22T13:04:33.545Z,25.97
2022-08-22T13:09:49.052Z,26.08
2022-08-22T13:15:27.552Z,26.16
2022-08-22T13:20:31.886Z,26.22
2022-08-22T13:26:07.695Z,26.27
2022-08-22T13:31:24.895Z,26.24
2022-08-22T13:36:31.722Z,26.13
2022-08-22T13:42:00.727Z,25.94
2022-08-22T13:47:14.600Z,25.77
2022-08-22T13:52:30.575Z,25.67
2022-08-22T13:57:51.967Z,25.74
2022-08-22T14:03:26.415Z,25.85
2022-08-22T14:08:36.677Z,25.81
2022-08-22T14:13:59.547Z,25.79
2022-08-22T14:19:14.618Z,25.85
2022-08-22T14:24:31.959Z,25.94
2022-08-22T14:29:50.414Z,26.00
2022-08-22T14:35:04.469Z,25.95
2022-08-22T14:40:18.305Z,25.83
2022-08-22T14:45:33.045Z,25.75
2022-08-22T14:51:01.507Z,25.75
2022-08-22T14:56:30.293Z,25.73
2022-08-22T15:02:13.777Z,25.69
2022-08-22T15:07:35.132Z,25.67
2022-08-22T15:12:49.750Z,25.65
2022-08-22T15:17:53.468Z,25.62
2022-08-22T15:23:18.363Z,25.65
2022-08-22T15:28:22.247Z,25.70
2022-08-22T15:33:32.991Z,25.75
2022-08-22T15:38:42.058Z,25.76
2022-08-22T15:44:32.166Z,25.75
2022-08-22T15:49:51.283Z,25.73
2022-08-22T15:54:54.258Z,25.68
2022-08-22T16:00:27.920Z,25.66
2022-08-22T16:05:46.584Z,25.63
2022-08-22T16:11:02.937Z,25.58
2022-08-22T16:16:27.521Z,25.57
2022-08-22T16:21:30.448Z,25.53
2022-08-22T16:26:44.252Z,25.49
2022-08-22T16:31:47.313Z,25.43
2022-08-22T16:37:08.941Z,25.38
2022-08-22T16:42:20.904Z,25.33
2022-08-22T16:47:33.147Z,25.26
2022-08-22T16:52:50.530Z,25.19
2022-08-22T16:58:15.059Z,25.13
2022-08-22T17:04:05.312Z,25.04
2022-08-22T17:09:47.672Z,24.95
2022-08-22T17:15:24.724Z,24.86
2022-08-22T17:20:39.773Z,24.78
2022-08-22T17:26:10.856Z,24.70
2022-08-22T17:31:32.547Z,24.61
2022-08-22T17:36:45.984Z,24.53
2022-08-22T17:42:10.759Z,24.45
2022-08-22T17:47:33.790Z,25.39
2022-08-22T17:52:46.199Z,27.55
2022-08-22T17:57:57.885Z,27.88
2022-08-22T18:03:08.583Z,26.65
2022-08-22T18:14:25.960Z,25.26
2022-08-22T18:20:21.887Z,24.82
2022-08-22T18:25:41.813Z,24.44
2022-08-22T18:31:02.667Z,24.19
2022-08-22T18:36:12.255Z,24.91
2022-08-22T18:41:27.830Z,27.01
2022-08-22T18:46:45.575Z,27.34
2022-08-22T18:52:10.006Z,26.01
2022-08-22T18:57:58.953Z,25.20
2022-08-22T19:03:24.118Z,24.65
2022-08-22T19:09:02.127Z,24.25
2022-08-22T19:14:28.064Z,23.90
2022-08-22T19:20:22.489Z,24.71
2022-08-22T19:25:28.012Z,26.96
2022-08-22T19:30:36.332Z,27.18
2022-08-22T19:36:06.409Z,25.88
2022-08-22T19:41:09.530Z,24.97
2022-08-22T19:46:13.606Z,24.43
2022-08-22T19:51:19.576Z,24.04
2022-08-22T19:56:53.582Z,24.60
2022-08-22T20:02:20.350Z,26.67
2022-08-22T20:08:02.945Z,26.81
2022-08-22T20:13:23.029Z,25.37
2022-08-22T20:19:08.816Z,24.53
2022-08-22T20:24:49.249Z,23.94
2022-08-22T20:30:28.607Z,24.65
2022-08-22T20:35:59.283Z,26.73
2022-08-22T20:41:23.848Z,26.87
2022-08-22T20:46:39.456Z,25.46
2022-08-22T20:51:54.614Z,24.62
2022-08-22T20:57:16.233Z,24.09
2022-08-22T21:02:34.303Z,23.70
2022-08-22T21:07:43.055Z,24.38
2022-08-22T21:13:38.771Z,26.36
2022-08-22T21:18:48.207Z,26.81
2022-08-22T21:24:07.159Z,25.36
2022-08-22T21:29:13.117Z,24.32
2022-08-22T21:34:19.874Z,23.71
2022-08-22T21:39:34.231Z,24.18
2022-08-22T21:44:41.808Z,26.18
2022-08-22T21:50:12.919Z,27.06
2022-08-22T21:55:46.818Z,25.99
2022-08-22T22:00:57.654Z,24.65
2022-08-22T22:06:05.420Z,23.86
2022-08-22T22:11:14.545Z,24.21
2022-08-22T22:16:24.945Z,26.13
2022-08-22T22:21:28.374Z,26.98
2022-08-22T22:26:31.834Z,26.26
2022-08-22T22:31:34.866Z,24.82
2022-08-22T22:36:38.302Z,23.95
2022-08-22T22:41:41.307Z,24.27
2022-08-22T22:46:44.318Z,26.11
2022-08-22T22:51:47.328Z,27.00
2022-08-22T22:56:51.834Z,27.56
2022-08-22T23:02:05.748Z,27.42
2022-08-22T23:07:11.088Z,25.80
2022-08-22T23:12:15.441Z,24.73
2022-08-22T23:17:19.499Z,24.99
2022-08-22T23:22:22.478Z,26.77
2022-08-22T23:27:25.744Z,27.56
2022-08-22T23:32:29.163Z,28.10
2022-08-22T23:37:32.260Z,27.67
2022-08-22T23:42:35.632Z,26.21
2022-08-22T23:47:38.776Z,25.24
2022-08-22T23:52:42.247Z,25.46
2022-08-22T23:57:45.288Z,27.11
